createdAt,value
2024-02-02T00:00:26.720Z,5.22
2024-02-02T00:05:49.742Z,5.25
2024-02-02T00:11:16.165Z,5.07
2024-02-02T00:16:39.086Z,4.92
2024-02-02T00:22:02.000Z,4.92
2024-02-02T00:27:26.295Z,5.13
2024-02-02T00:32:49.538Z,5.34
2024-02-02T00:38:12.820Z,5.26
2024-02-02T00:43:38.271Z,5.29
2024-02-02T00:49:01.417Z,5.01
2024-02-02T00:54:24.536Z,5.26
2024-02-02T00:59:51.522Z,5.04
2024-02-02T01:05:15.205Z,5.04
2024-02-02T01:10:38.052Z,5.30
2024-02-02T01:16:02.251Z,5.28
2024-02-02T01:21:25.225Z,4.94
2024-02-02T01:26:48.242Z,4.75
2024-02-02T01:32:12.493Z,4.93
2024-02-02T01:37:35.712Z,5.31
2024-02-02T01:42:58.522Z,5.10
2024-02-02T01:48:22.950Z,5.01
2024-02-02T01:53:46.045Z,4.84
2024-02-02T01:59:09.348Z,4.88
2024-02-02T02:04:33.602Z,4.92
2024-02-02T02:09:56.839Z,5.15
2024-02-02T02:15:20.218Z,4.70
2024-02-02T02:20:46.117Z,4.94
2024-02-02T02:26:10.305Z,4.65
2024-02-02T02:31:33.621Z,4.61
2024-02-02T02:36:56.667Z,5.23
2024-02-02T02:42:21.357Z,4.67
2024-02-02T02:47:44.493Z,4.96
2024-02-02T02:53:07.992Z,5.41
2024-02-02T02:58:32.301Z,5.36
2024-02-02T03:03:55.314Z,5.44
2024-02-02T03:09:18.314Z,4.72
2024-02-02T03:14:42.487Z,5.31
2024-02-02T03:20:08.783Z,5.20
2024-02-02T03:25:31.743Z,5.02
2024-02-02T03:30:55.959Z,5.21
2024-02-02T03:36:18.849Z,5.43
2024-02-02T03:41:41.798Z,5.42
2024-02-02T03:47:06.314Z,5.51
2024-02-02T03:52:29.138Z,5.27
2024-02-02T03:57:52.319Z,5.05
2024-02-02T04:03:16.745Z,5.00
2024-02-02T04:08:41.118Z,5.45
2024-02-02T04:14:05.192Z,5.47
2024-02-02T04:19:29.508Z,5.54
2024-02-02T04:24:53.636Z,5.52
2024-02-02T04:30:18.296Z,5.55
2024-02-02T04:35:42.455Z,5.11
2024-02-02T04:41:06.147Z,4.90
2024-02-02T04:46:29.151Z,4.98
2024-02-02T04:51:53.368Z,5.05
2024-02-02T04:57:16.478Z,5.18
2024-02-02T05:02:39.474Z,5.05
2024-02-02T05:08:03.737Z,5.11
2024-02-02T05:13:26.751Z,5.08
2024-02-02T05:18:51.856Z,5.48
2024-02-02T05:24:29.651Z,5.43
2024-02-02T05:30:01.767Z,5.22
2024-02-02T05:35:24.663Z,5.23
2024-02-02T05:40:50.091Z,5.31
2024-02-02T05:46:13.353Z,5.33
2024-02-02T05:51:36.585Z,5.15
2024-02-02T05:57:03.669Z,5.12
2024-02-02T06:02:26.692Z,4.94
2024-02-02T06:07:49.499Z,5.08
2024-02-02T06:13:13.748Z,5.19
2024-02-02T06:18:37.103Z,5.22
2024-02-02T06:24:00.301Z,5.34
2024-02-02T06:29:25.006Z,5.29
2024-02-02T06:34:51.992Z,5.55
2024-02-02T06:40:15.429Z,5.67
2024-02-02T06:45:39.680Z,5.63
2024-02-02T06:51:05.197Z,5.61
2024-02-02T06:56:39.257Z,5.35
2024-02-02T07:02:18.599Z,5.37
2024-02-02T07:07:42.581Z,5.61
2024-02-02T07:13:05.811Z,5.68
2024-02-02T07:18:37.765Z,5.49
2024-02-02T07:24:01.795Z,5.98
2024-02-02T07:29:39.716Z,5.44
2024-02-02T07:35:04.854Z,5.52
2024-02-02T07:41:02.695Z,5.68
2024-02-02T07:46:26.043Z,5.69
2024-02-02T07:51:50.259Z,5.78
2024-02-02T07:57:13.183Z,5.78
2024-02-02T08:02:36.004Z,5.99
2024-02-02T08:08:00.168Z,5.96
2024-02-02T08:13:23.620Z,6.11
2024-02-02T08:18:46.770Z,5.89
2024-02-02T08:24:11.768Z,5.49
2024-02-02T08:29:34.685Z,5.30
2024-02-02T08:34:57.530Z,5.81
2024-02-02T08:40:36.313Z,5.84
2024-02-02T08:46:08.754Z,5.46
2024-02-02T08:51:53.326Z,5.45
2024-02-02T08:57:34.069Z,5.56
2024-02-02T09:03:07.107Z,5.85
2024-02-02T09:08:36.201Z,5.80
2024-02-02T09:14:12.108Z,6.09
2024-02-02T09:19:42.559Z,6.13
2024-02-02T09:25:11.945Z,6.16
2024-02-02T09:30:36.167Z,6.89
2024-02-02T09:35:59.760Z,5.85
2024-02-02T09:41:54.121Z,6.69
2024-02-02T09:48:01.336Z,6.67
2024-02-02T09:53:46.074Z,6.97
2024-02-02T09:59:16.690Z,6.78
2024-02-02T10:04:53.255Z,7.15
2024-02-02T10:10:41.559Z,7.18
2024-02-02T10:16:20.417Z,7.20
2024-02-02T10:21:56.789Z,7.42
2024-02-02T10:27:34.172Z,7.68
2024-02-02T10:33:25.738Z,7.25
2024-02-02T10:39:02.480Z,7.30
2024-02-02T10:44:43.463Z,7.62
2024-02-02T10:50:22.179Z,7.66
2024-02-02T10:56:02.425Z,7.87
2024-02-02T11:01:34.845Z,7.77
2024-02-02T11:07:08.030Z,7.97
2024-02-02T11:12:43.328Z,7.82
2024-02-02T11:18:25.979Z,7.68
2024-02-02T11:24:00.072Z,7.83
2024-02-02T11:29:38.853Z,7.99
2024-02-02T11:35:08.625Z,7.69
2024-02-02T11:40:34.736Z,7.77
2024-02-02T11:46:02.376Z,8.15
2024-02-02T11:51:27.285Z,8.25
2024-02-02T11:56:53.237Z,8.19
2024-02-02T12:02:35.062Z,8.33
2024-02-02T12:08:05.087Z,8.83
2024-02-02T12:13:32.678Z,8.78
2024-02-02T12:18:57.707Z,8.54
2024-02-02T12:24:22.338Z,8.44
2024-02-02T12:29:45.783Z,8.81
2024-02-02T12:40:36.688Z,8.29
2024-02-02T12:46:00.123Z,8.64
2024-02-02T12:51:24.677Z,8.95
2024-02-02T12:56:47.880Z,9.19
2024-02-02T13:02:14.815Z,8.94
2024-02-02T13:07:39.402Z,8.81
2024-02-02T13:13:11.994Z,8.58
2024-02-02T13:18:37.999Z,8.78
2024-02-02T13:24:05.198Z,9.11
2024-02-02T13:29:28.550Z,8.97
2024-02-02T13:34:54.259Z,9.13
2024-02-02T13:40:18.534Z,9.00
2024-02-02T13:45:42.261Z,9.22
2024-02-02T13:51:06.404Z,10.29
2024-02-02T13:56:31.113Z,10.52
2024-02-02T14:01:54.306Z,10.53
2024-02-02T14:07:18.886Z,10.63
2024-02-02T14:12:43.256Z,10.25
2024-02-02T14:18:07.274Z,10.36
2024-02-02T14:23:32.251Z,10.25
2024-02-02T14:29:01.228Z,10.44
2024-02-02T14:34:25.500Z,10.77
2024-02-02T14:39:49.805Z,10.21
2024-02-02T14:45:14.219Z,9.94
2024-02-02T14:50:37.171Z,10.25
2024-02-02T14:56:00.301Z,9.84
2024-02-02T15:01:29.255Z,9.62
2024-02-02T15:06:53.178Z,9.67
2024-02-02T15:12:16.139Z,9.78
2024-02-02T15:17:40.673Z,9.65
2024-02-02T15:23:03.715Z,9.67
2024-02-02T15:28:26.763Z,9.72
2024-02-02T15:33:51.131Z,9.44
2024-02-02T15:39:23.691Z,9.58
2024-02-02T15:44:54.495Z,9.56
2024-02-02T15:50:18.737Z,9.52
2024-02-02T15:55:41.831Z,9.56
2024-02-02T16:01:05.705Z,9.61
2024-02-02T16:06:30.343Z,9.63
2024-02-02T16:11:53.203Z,9.82
2024-02-02T16:17:16.144Z,9.70
2024-02-02T16:22:42.390Z,8.87
2024-02-02T16:28:05.891Z,8.75
2024-02-02T16:33:28.956Z,8.54
2024-02-02T16:38:53.318Z,8.68
2024-02-02T16:44:18.861Z,8.33
2024-02-02T16:49:44.505Z,8.81
2024-02-02T16:55:10.153Z,9.02
2024-02-02T17:00:33.287Z,8.94
2024-02-02T17:05:56.377Z,8.94
2024-02-02T17:11:21.844Z,9.27
2024-02-02T17:16:44.947Z,9.41
2024-02-02T17:22:07.823Z,9.41
2024-02-02T17:27:32.000Z,9.20
2024-02-02T17:32:57.117Z,9.23
2024-02-02T17:38:20.161Z,8.85
2024-02-02T17:43:46.257Z,8.58
2024-02-02T17:49:09.531Z,8.65
2024-02-02T17:54:35.173Z,8.58
2024-02-02T17:59:59.434Z,8.74
2024-02-02T18:05:22.539Z,8.76
2024-02-02T18:10:45.408Z,8.80
2024-02-02T18:16:11.968Z,8.64
2024-02-02T18:21:36.460Z,7.40
2024-02-02T18:26:59.436Z,8.31
2024-02-02T18:32:23.818Z,8.56
2024-02-02T18:37:48.676Z,8.36
2024-02-02T18:43:11.583Z,8.45
2024-02-02T18:48:40.137Z,8.37
2024-02-02T18:54:03.665Z,8.51
2024-02-02T18:59:26.680Z,8.31
2024-02-02T19:04:52.025Z,8.35
2024-02-02T19:10:16.701Z,8.37
2024-02-02T19:15:39.644Z,8.43
2024-02-02T19:21:04.061Z,8.51
2024-02-02T19:26:27.131Z,8.50
2024-02-02T19:31:50.033Z,8.45
2024-02-02T19:37:14.240Z,8.37
2024-02-02T19:42:37.175Z,8.44
2024-02-02T19:48:09.483Z,8.48
2024-02-02T19:53:33.723Z,8.45
2024-02-02T19:58:58.305Z,8.58
2024-02-02T20:04:21.489Z,8.61
2024-02-02T20:09:45.813Z,8.55
2024-02-02T20:15:09.372Z,8.74
2024-02-02T20:20:32.493Z,8.47
2024-02-02T20:25:56.944Z,8.37
2024-02-02T20:31:21.650Z,8.38
2024-02-02T20:36:44.768Z,8.48
2024-02-02T20:42:09.411Z,8.47
2024-02-02T20:47:32.381Z,8.29
2024-02-02T20:52:55.242Z,8.38
2024-02-02T20:58:19.405Z,8.44
2024-02-02T21:03:42.488Z,8.30
2024-02-02T21:09:05.812Z,8.43
2024-02-02T21:14:30.072Z,8.39
2024-02-02T21:19:53.212Z,8.46
2024-02-02T21:25:16.441Z,8.44
2024-02-02T21:30:41.830Z,8.31
2024-02-02T21:36:08.610Z,8.37
2024-02-02T21:41:32.951Z,8.43
2024-02-02T21:46:57.545Z,8.48
2024-02-02T21:52:20.472Z,8.43
2024-02-02T21:57:43.567Z,8.43
2024-02-02T22:03:07.979Z,8.50
2024-02-02T22:08:33.682Z,8.47
2024-02-02T22:13:58.112Z,8.51
2024-02-02T22:19:22.867Z,8.57
2024-02-02T22:24:46.062Z,8.60
2024-02-02T22:30:10.358Z,8.74
2024-02-02T22:35:34.703Z,8.59
2024-02-02T22:40:57.777Z,8.53
2024-02-02T22:46:20.710Z,8.40
2024-02-02T22:51:48.648Z,8.55
2024-02-02T22:57:11.790Z,8.68
2024-02-02T23:02:34.656Z,8.88
2024-02-02T23:07:58.863Z,8.85
2024-02-02T23:13:22.427Z,8.71
2024-02-02T23:18:45.951Z,8.78
2024-02-02T23:24:10.872Z,8.79
2024-02-02T23:29:33.971Z,8.81
2024-02-02T23:34:56.923Z,8.80
2024-02-02T23:40:21.160Z,8.90
2024-02-02T23:45:44.291Z,8.80
2024-02-02T23:51:07.437Z,8.96
2024-02-02T23:56:31.694Z,8.91
